sensor_id;sensor_type;location;lat;lon;timestamp;temperature;humidity
61765;DHT22;50188;48.114;-1.388;2022-09-09T00:01:33;17.90;88.30
61765;DHT22;50188;48.114;-1.388;2022-09-09T00:04:15;17.90;87.60
61765;DHT22;50188;48.114;-1.388;2022-09-09T00:06:52;17.90;88.40
61765;DHT22;50188;48.114;-1.388;2022-09-09T00:09:21;17.90;87.60
61765;DHT22;50188;48.114;-1.388;2022-09-09T00:11:52;17.90;87.50
61765;DHT22;50188;48.114;-1.388;2022-09-09T00:14:35;17.80;87.50
61765;DHT22;50188;48.114;-1.388;2022-09-09T00:17:09;17.80;87.70
61765;DHT22;50188;48.114;-1.388;2022-09-09T00:19:44;17.70;87.60
61765;DHT22;50188;48.114;-1.388;2022-09-09T00:22:18;17.70;87.80
61765;DHT22;50188;48.114;-1.388;2022-09-09T00:25:11;17.70;87.90
61765;DHT22;50188;48.114;-1.388;2022-09-09T00:27:47;17.60;88.00
61765;DHT22;50188;48.114;-1.388;2022-09-09T00:30:23;17.60;88.10
61765;DHT22;50188;48.114;-1.388;2022-09-09T00:32:53;17.60;88.50
61765;DHT22;50188;48.114;-1.388;2022-09-09T00:35:25;17.50;88.50
61765;DHT22;50188;48.114;-1.388;2022-09-09T00:37:56;17.60;88.40
61765;DHT22;50188;48.114;-1.388;2022-09-09T00:40:35;17.50;88.50
61765;DHT22;50188;48.114;-1.388;2022-09-09T00:43:21;17.50;88.60
61765;DHT22;50188;48.114;-1.388;2022-09-09T00:49:24;17.50;88.90
61765;DHT22;50188;48.114;-1.388;2022-09-09T00:55:16;17.40;89.20
61765;DHT22;50188;48.114;-1.388;2022-09-09T00:57:44;17.40;89.40
61765;DHT22;50188;48.114;-1.388;2022-09-09T01:00:30;17.40;89.30
61765;DHT22;50188;48.114;-1.388;2022-09-09T01:03:20;17.40;89.40
61765;DHT22;50188;48.114;-1.388;2022-09-09T01:06:20;17.50;90.10
61765;DHT22;50188;48.114;-1.388;2022-09-09T01:14:54;17.30;89.60
61765;DHT22;50188;48.114;-1.388;2022-09-09T01:17:31;17.30;89.60
61765;DHT22;50188;48.114;-1.388;2022-09-09T01:20:24;17.30;89.80
61765;DHT22;50188;48.114;-1.388;2022-09-09T01:26:15;17.20;90.00
61765;DHT22;50188;48.114;-1.388;2022-09-09T01:28:46;17.20;90.10
61765;DHT22;50188;48.114;-1.388;2022-09-09T01:31:17;17.20;90.20
61765;DHT22;50188;48.114;-1.388;2022-09-09T01:33:43;17.20;90.20
61765;DHT22;50188;48.114;-1.388;2022-09-09T01:36:34;17.10;90.20
61765;DHT22;50188;48.114;-1.388;2022-09-09T01:39:01;17.10;90.20
61765;DHT22;50188;48.114;-1.388;2022-09-09T01:41:27;17.10;90.20
61765;DHT22;50188;48.114;-1.388;2022-09-09T01:43:54;17.00;90.40
61765;DHT22;50188;48.114;-1.388;2022-09-09T01:46:22;17.00;90.50
61765;DHT22;50188;48.114;-1.388;2022-09-09T01:48:50;17.00;90.60
61765;DHT22;50188;48.114;-1.388;2022-09-09T01:51:16;16.90;90.90
61765;DHT22;50188;48.114;-1.388;2022-09-09T01:53:43;17.00;90.90
61765;DHT22;50188;48.114;-1.388;2022-09-09T01:56:35;17.10;90.90
61765;DHT22;50188;48.114;-1.388;2022-09-09T01:59:22;17.10;90.90
61765;DHT22;50188;48.114;-1.388;2022-09-09T02:02:22;17.20;90.70
61765;DHT22;50188;48.114;-1.388;2022-09-09T02:04:53;17.10;90.70
61765;DHT22;50188;48.114;-1.388;2022-09-09T02:07:41;17.10;90.70
61765;DHT22;50188;48.114;-1.388;2022-09-09T02:10:20;17.10;90.70
61765;DHT22;50188;48.114;-1.388;2022-09-09T02:12:53;17.10;90.70
61765;DHT22;50188;48.114;-1.388;2022-09-09T02:15:26;17.10;90.60
61765;DHT22;50188;48.114;-1.388;2022-09-09T02:17:56;17.10;90.60
61765;DHT22;50188;48.114;-1.388;2022-09-09T02:20:25;17.00;90.70
61765;DHT22;50188;48.114;-1.388;2022-09-09T02:22:53;17.10;90.80
61765;DHT22;50188;48.114;-1.388;2022-09-09T02:25:22;17.10;90.70
61765;DHT22;50188;48.114;-1.388;2022-09-09T02:27:50;17.10;90.80
61765;DHT22;50188;48.114;-1.388;2022-09-09T02:30:17;17.00;90.90
61765;DHT22;50188;48.114;-1.388;2022-09-09T02:32:44;17.10;90.80
61765;DHT22;50188;48.114;-1.388;2022-09-09T02:35:14;17.00;90.90
61765;DHT22;50188;48.114;-1.388;2022-09-09T02:37:42;17.10;90.80
61765;DHT22;50188;48.114;-1.388;2022-09-09T02:40:10;17.10;90.80
61765;DHT22;50188;48.114;-1.388;2022-09-09T02:42:40;17.10;90.70
61765;DHT22;50188;48.114;-1.388;2022-09-09T02:45:08;17.10;90.70
61765;DHT22;50188;48.114;-1.388;2022-09-09T02:47:36;17.10;90.70
61765;DHT22;50188;48.114;-1.388;2022-09-09T02:50:21;17.10;90.80
61765;DHT22;50188;48.114;-1.388;2022-09-09T02:53:02;17.10;90.70
61765;DHT22;50188;48.114;-1.388;2022-09-09T02:55:39;17.10;90.70
61765;DHT22;50188;48.114;-1.388;2022-09-09T02:58:09;17.10;90.70
61765;DHT22;50188;48.114;-1.388;2022-09-09T03:00:37;17.10;90.70
61765;DHT22;50188;48.114;-1.388;2022-09-09T03:03:04;17.10;90.70
61765;DHT22;50188;48.114;-1.388;2022-09-09T03:05:30;17.10;90.60
61765;DHT22;50188;48.114;-1.388;2022-09-09T03:07:55;17.10;90.50
61765;DHT22;50188;48.114;-1.388;2022-09-09T03:10:21;17.10;90.60
61765;DHT22;50188;48.114;-1.388;2022-09-09T03:12:47;17.20;90.60
61765;DHT22;50188;48.114;-1.388;2022-09-09T03:15:13;17.20;90.50
61765;DHT22;50188;48.114;-1.388;2022-09-09T03:17:40;17.20;90.60
61765;DHT22;50188;48.114;-1.388;2022-09-09T03:20:06;17.20;90.50
61765;DHT22;50188;48.114;-1.388;2022-09-09T03:22:32;17.20;90.50
61765;DHT22;50188;48.114;-1.388;2022-09-09T03:24:58;17.20;90.50
61765;DHT22;50188;48.114;-1.388;2022-09-09T03:27:24;17.20;90.50
61765;DHT22;50188;48.114;-1.388;2022-09-09T03:29:50;17.20;90.50
61765;DHT22;50188;48.114;-1.388;2022-09-09T03:32:16;17.30;90.50
61765;DHT22;50188;48.114;-1.388;2022-09-09T03:34:43;17.20;90.40
61765;DHT22;50188;48.114;-1.388;2022-09-09T03:37:08;17.20;90.50
61765;DHT22;50188;48.114;-1.388;2022-09-09T03:39:34;17.20;90.40
61765;DHT22;50188;48.114;-1.388;2022-09-09T03:42:00;17.20;90.40
61765;DHT22;50188;48.114;-1.388;2022-09-09T03:44:28;17.20;90.40
61765;DHT22;50188;48.114;-1.388;2022-09-09T03:46:54;17.30;90.40
61765;DHT22;50188;48.114;-1.388;2022-09-09T03:49:19;17.20;90.50
61765;DHT22;50188;48.114;-1.388;2022-09-09T03:51:45;17.20;90.40
61765;DHT22;50188;48.114;-1.388;2022-09-09T03:54:11;17.20;90.50
61765;DHT22;50188;48.114;-1.388;2022-09-09T03:56:36;17.20;90.40
61765;DHT22;50188;48.114;-1.388;2022-09-09T03:59:03;17.20;90.50
61765;DHT22;50188;48.114;-1.388;2022-09-09T04:01:29;17.20;90.50
61765;DHT22;50188;48.114;-1.388;2022-09-09T04:03:55;17.20;90.50
61765;DHT22;50188;48.114;-1.388;2022-09-09T04:06:24;17.20;90.50
61765;DHT22;50188;48.114;-1.388;2022-09-09T04:08:50;17.20;90.50
61765;DHT22;50188;48.114;-1.388;2022-09-09T04:11:17;17.20;90.70
61765;DHT22;50188;48.114;-1.388;2022-09-09T04:13:43;17.20;90.50
61765;DHT22;50188;48.114;-1.388;2022-09-09T04:16:11;17.20;90.50
61765;DHT22;50188;48.114;-1.388;2022-09-09T04:18:38;17.20;90.50
61765;DHT22;50188;48.114;-1.388;2022-09-09T04:21:04;17.20;90.60
61765;DHT22;50188;48.114;-1.388;2022-09-09T04:23:32;17.20;90.60
61765;DHT22;50188;48.114;-1.388;2022-09-09T04:26:00;17.10;90.80
61765;DHT22;50188;48.114;-1.388;2022-09-09T04:28:28;17.20;90.70
61765;DHT22;50188;48.114;-1.388;2022-09-09T04:30:55;17.20;90.70
61765;DHT22;50188;48.114;-1.388;2022-09-09T04:33:23;17.20;90.70
61765;DHT22;50188;48.114;-1.388;2022-09-09T04:35:52;17.20;90.70
61765;DHT22;50188;48.114;-1.388;2022-09-09T04:38:19;17.20;90.70
61765;DHT22;50188;48.114;-1.388;2022-09-09T04:40:49;17.10;90.80
61765;DHT22;50188;48.114;-1.388;2022-09-09T04:43:15;17.10;90.70
61765;DHT22;50188;48.114;-1.388;2022-09-09T04:45:42;17.10;90.70
61765;DHT22;50188;48.114;-1.388;2022-09-09T04:48:08;17.10;90.80
61765;DHT22;50188;48.114;-1.388;2022-09-09T04:50:34;17.10;90.70
61765;DHT22;50188;48.114;-1.388;2022-09-09T04:53:01;17.00;90.80
61765;DHT22;50188;48.114;-1.388;2022-09-09T04:55:27;17.00;90.90
61765;DHT22;50188;48.114;-1.388;2022-09-09T04:57:53;17.00;90.90
61765;DHT22;50188;48.114;-1.388;2022-09-09T05:00:19;16.90;90.90
61765;DHT22;50188;48.114;-1.388;2022-09-09T05:02:44;16.90;90.90
61765;DHT22;50188;48.114;-1.388;2022-09-09T05:05:10;16.90;90.90
61765;DHT22;50188;48.114;-1.388;2022-09-09T05:07:37;16.90;90.80
61765;DHT22;50188;48.114;-1.388;2022-09-09T05:10:03;16.90;90.80
61765;DHT22;50188;48.114;-1.388;2022-09-09T05:12:29;16.80;90.90
61765;DHT22;50188;48.114;-1.388;2022-09-09T05:14:55;16.80;90.90
61765;DHT22;50188;48.114;-1.388;2022-09-09T05:17:21;16.80;91.00
61765;DHT22;50188;48.114;-1.388;2022-09-09T05:19:46;16.70;91.10
61765;DHT22;50188;48.114;-1.388;2022-09-09T05:22:12;16.80;91.10
61765;DHT22;50188;48.114;-1.388;2022-09-09T05:24:38;16.70;91.20
61765;DHT22;50188;48.114;-1.388;2022-09-09T05:27:04;16.70;91.20
61765;DHT22;50188;48.114;-1.388;2022-09-09T05:29:31;16.70;91.20
61765;DHT22;50188;48.114;-1.388;2022-09-09T05:31:59;16.70;91.30
61765;DHT22;50188;48.114;-1.388;2022-09-09T05:34:25;16.70;91.20
61765;DHT22;50188;48.114;-1.388;2022-09-09T05:36:50;16.70;91.20
61765;DHT22;50188;48.114;-1.388;2022-09-09T05:39:17;16.70;91.30
61765;DHT22;50188;48.114;-1.388;2022-09-09T05:41:43;16.70;91.30
61765;DHT22;50188;48.114;-1.388;2022-09-09T05:44:09;16.70;91.40
61765;DHT22;50188;48.114;-1.388;2022-09-09T05:46:35;16.80;91.30
61765;DHT22;50188;48.114;-1.388;2022-09-09T05:49:02;16.80;91.30
61765;DHT22;50188;48.114;-1.388;2022-09-09T05:51:28;16.80;91.30
61765;DHT22;50188;48.114;-1.388;2022-09-09T05:53:58;16.80;91.30
61765;DHT22;50188;48.114;-1.388;2022-09-09T05:56:25;16.80;91.40
61765;DHT22;50188;48.114;-1.388;2022-09-09T05:58:52;16.80;91.40
61765;DHT22;50188;48.114;-1.388;2022-09-09T06:01:22;16.80;91.40
61765;DHT22;50188;48.114;-1.388;2022-09-09T06:03:49;16.80;91.40
61765;DHT22;50188;48.114;-1.388;2022-09-09T06:06:17;16.80;91.40
61765;DHT22;50188;48.114;-1.388;2022-09-09T06:08:44;16.80;91.40
61765;DHT22;50188;48.114;-1.388;2022-09-09T06:11:12;16.80;91.20
61765;DHT22;50188;48.114;-1.388;2022-09-09T06:13:39;16.90;91.20
61765;DHT22;50188;48.114;-1.388;2022-09-09T06:16:09;17.60;90.70
61765;DHT22;50188;48.114;-1.388;2022-09-09T06:18:37;18.20;89.50
61765;DHT22;50188;48.114;-1.388;2022-09-09T06:21:04;18.80;86.90
61765;DHT22;50188;48.114;-1.388;2022-09-09T06:23:31;18.90;85.70
61765;DHT22;50188;48.114;-1.388;2022-09-09T06:26:09;19.50;83.70
61765;DHT22;50188;48.114;-1.388;2022-09-09T06:28:36;20.30;81.30
61765;DHT22;50188;48.114;-1.388;2022-09-09T06:31:10;20.90;78.40
61765;DHT22;50188;48.114;-1.388;2022-09-09T06:33:39;21.60;76.20
61765;DHT22;50188;48.114;-1.388;2022-09-09T06:36:11;22.20;73.70
61765;DHT22;50188;48.114;-1.388;2022-09-09T06:38:37;22.60;71.40
61765;DHT22;50188;48.114;-1.388;2022-09-09T06:41:03;22.40;70.00
61765;DHT22;50188;48.114;-1.388;2022-09-09T06:43:31;23.00;68.50
61765;DHT22;50188;48.114;-1.388;2022-09-09T06:45:59;23.40;67.80
61765;DHT22;50188;48.114;-1.388;2022-09-09T06:48:26;23.60;66.60
61765;DHT22;50188;48.114;-1.388;2022-09-09T06:51:04;23.70;64.50
61765;DHT22;50188;48.114;-1.388;2022-09-09T06:53:30;24.50;62.50
61765;DHT22;50188;48.114;-1.388;2022-09-09T06:56:00;24.10;62.80
61765;DHT22;50188;48.114;-1.388;2022-09-09T06:58:27;23.90;63.70
61765;DHT22;50188;48.114;-1.388;2022-09-09T07:01:05;23.10;65.00
61765;DHT22;50188;48.114;-1.388;2022-09-09T07:03:31;22.50;66.70
61765;DHT22;50188;48.114;-1.388;2022-09-09T07:05:57;22.10;68.50
61765;DHT22;50188;48.114;-1.388;2022-09-09T07:08:23;21.60;69.90
61765;DHT22;50188;48.114;-1.388;2022-09-09T07:10:51;21.20;71.10
61765;DHT22;50188;48.114;-1.388;2022-09-09T07:13:26;21.20;71.90
61765;DHT22;50188;48.114;-1.388;2022-09-09T07:15:52;21.20;72.10
61765;DHT22;50188;48.114;-1.388;2022-09-09T07:18:19;21.70;71.40
61765;DHT22;50188;48.114;-1.388;2022-09-09T07:20:55;22.80;69.00
61765;DHT22;50188;48.114;-1.388;2022-09-09T07:23:21;23.40;66.20
61765;DHT22;50188;48.114;-1.388;2022-09-09T07:25:47;23.90;65.60
61765;DHT22;50188;48.114;-1.388;2022-09-09T07:28:13;24.80;62.70
61765;DHT22;50188;48.114;-1.388;2022-09-09T07:30:39;25.30;60.00
61765;DHT22;50188;48.114;-1.388;2022-09-09T07:33:06;25.30;59.40
61765;DHT22;50188;48.114;-1.388;2022-09-09T07:35:32;24.40;61.20
61765;DHT22;50188;48.114;-1.388;2022-09-09T07:37:57;23.90;62.50
61765;DHT22;50188;48.114;-1.388;2022-09-09T07:40:24;23.40;63.90
61765;DHT22;50188;48.114;-1.388;2022-09-09T07:42:49;23.20;64.60
61765;DHT22;50188;48.114;-1.388;2022-09-09T07:45:15;22.90;65.70
61765;DHT22;50188;48.114;-1.388;2022-09-09T07:47:41;22.50;67.00
61765;DHT22;50188;48.114;-1.388;2022-09-09T07:50:09;22.30;67.90
61765;DHT22;50188;48.114;-1.388;2022-09-09T07:52:35;22.10;68.90
61765;DHT22;50188;48.114;-1.388;2022-09-09T07:55:01;21.90;69.40
61765;DHT22;50188;48.114;-1.388;2022-09-09T07:57:28;21.80;69.60
61765;DHT22;50188;48.114;-1.388;2022-09-09T07:59:56;21.50;70.80
61765;DHT22;50188;48.114;-1.388;2022-09-09T08:02:23;21.20;71.50
61765;DHT22;50188;48.114;-1.388;2022-09-09T08:04:49;21.10;72.10
61765;DHT22;50188;48.114;-1.388;2022-09-09T08:07:15;20.90;72.50
61765;DHT22;50188;48.114;-1.388;2022-09-09T08:09:41;20.70;73.20
61765;DHT22;50188;48.114;-1.388;2022-09-09T08:12:07;20.60;73.90
61765;DHT22;50188;48.114;-1.388;2022-09-09T08:14:34;20.50;74.10
61765;DHT22;50188;48.114;-1.388;2022-09-09T08:17:00;20.30;74.70
61765;DHT22;50188;48.114;-1.388;2022-09-09T08:19:25;20.30;75.70
61765;DHT22;50188;48.114;-1.388;2022-09-09T08:21:51;20.20;76.10
61765;DHT22;50188;48.114;-1.388;2022-09-09T08:24:17;20.90;75.10
61765;DHT22;50188;48.114;-1.388;2022-09-09T08:26:46;21.70;75.30
61765;DHT22;50188;48.114;-1.388;2022-09-09T08:29:14;22.30;72.00
61765;DHT22;50188;48.114;-1.388;2022-09-09T08:31:43;22.80;69.80
61765;DHT22;50188;48.114;-1.388;2022-09-09T08:34:09;23.20;69.20
61765;DHT22;50188;48.114;-1.388;2022-09-09T08:36:42;23.80;66.80
61765;DHT22;50188;48.114;-1.388;2022-09-09T08:39:10;23.80;66.00
61765;DHT22;50188;48.114;-1.388;2022-09-09T08:42:05;23.80;64.70
61765;DHT22;50188;48.114;-1.388;2022-09-09T08:48:21;23.10;65.00
61765;DHT22;50188;48.114;-1.388;2022-09-09T08:50:45;22.70;64.70
61765;DHT22;50188;48.114;-1.388;2022-09-09T08:53:23;22.70;66.20
61765;DHT22;50188;48.114;-1.388;2022-09-09T08:55:52;22.70;66.80
61765;DHT22;50188;48.114;-1.388;2022-09-09T08:58:23;22.60;66.80
61765;DHT22;50188;48.114;-1.388;2022-09-09T09:04:37;23.20;65.90
61765;DHT22;50188;48.114;-1.388;2022-09-09T09:10:25;23.60;63.00
61765;DHT22;50188;48.114;-1.388;2022-09-09T09:12:56;23.30;63.90
61765;DHT22;50188;48.114;-1.388;2022-09-09T09:15:29;23.00;64.90
61765;DHT22;50188;48.114;-1.388;2022-09-09T09:17:56;22.90;64.10
61765;DHT22;50188;48.114;-1.388;2022-09-09T09:20:47;22.90;65.20
61765;DHT22;50188;48.114;-1.388;2022-09-09T09:23:21;23.00;64.60
61765;DHT22;50188;48.114;-1.388;2022-09-09T09:25:47;23.00;64.80
61765;DHT22;50188;48.114;-1.388;2022-09-09T09:28:17;23.40;65.40
61765;DHT22;50188;48.114;-1.388;2022-09-09T09:30:54;23.60;65.20
61765;DHT22;50188;48.114;-1.388;2022-09-09T09:33:31;24.30;64.90
61765;DHT22;50188;48.114;-1.388;2022-09-09T09:35:58;24.90;61.30
61765;DHT22;50188;48.114;-1.388;2022-09-09T09:38:26;25.00;60.80
61765;DHT22;50188;48.114;-1.388;2022-09-09T09:40:57;25.10;60.50
61765;DHT22;50188;48.114;-1.388;2022-09-09T09:43:27;25.00;59.90
61765;DHT22;50188;48.114;-1.388;2022-09-09T09:45:53;25.10;59.10
61765;DHT22;50188;48.114;-1.388;2022-09-09T09:48:19;25.10;58.00
61765;DHT22;50188;48.114;-1.388;2022-09-09T09:50:54;24.60;57.80
61765;DHT22;50188;48.114;-1.388;2022-09-09T09:53:31;24.10;59.60
61765;DHT22;50188;48.114;-1.388;2022-09-09T09:56:03;24.00;60.60
61765;DHT22;50188;48.114;-1.388;2022-09-09T09:58:31;23.70;61.40
61765;DHT22;50188;48.114;-1.388;2022-09-09T10:00:59;23.60;61.30
61765;DHT22;50188;48.114;-1.388;2022-09-09T10:03:33;23.70;61.80
61765;DHT22;50188;48.114;-1.388;2022-09-09T10:06:03;24.40;60.90
61765;DHT22;50188;48.114;-1.388;2022-09-09T10:08:29;24.60;60.00
61765;DHT22;50188;48.114;-1.388;2022-09-09T10:11:16;25.30;59.10
61765;DHT22;50188;48.114;-1.388;2022-09-09T10:14:16;25.50;59.60
61765;DHT22;50188;48.114;-1.388;2022-09-09T10:17:23;25.20;57.30
61765;DHT22;50188;48.114;-1.388;2022-09-09T10:20:15;25.40;57.10
61765;DHT22;50188;48.114;-1.388;2022-09-09T10:22:49;25.70;55.80
61765;DHT22;50188;48.114;-1.388;2022-09-09T10:25:35;25.80;55.90
61765;DHT22;50188;48.114;-1.388;2022-09-09T10:28:26;25.70;54.50
61765;DHT22;50188;48.114;-1.388;2022-09-09T10:31:19;25.80;53.60
61765;DHT22;50188;48.114;-1.388;2022-09-09T10:34:10;26.20;53.90
61765;DHT22;50188;48.114;-1.388;2022-09-09T10:36:44;26.00;55.90
61765;DHT22;50188;48.114;-1.388;2022-09-09T10:39:32;26.20;55.70
61765;DHT22;50188;48.114;-1.388;2022-09-09T10:42:05;25.80;55.00
61765;DHT22;50188;48.114;-1.388;2022-09-09T10:44:46;25.50;55.40
61765;DHT22;50188;48.114;-1.388;2022-09-09T10:47:26;26.00;53.40
61765;DHT22;50188;48.114;-1.388;2022-09-09T10:50:29;26.20;52.10
61765;DHT22;50188;48.114;-1.388;2022-09-09T10:53:17;25.50;53.30
61765;DHT22;50188;48.114;-1.388;2022-09-09T10:56:12;25.00;53.60
61765;DHT22;50188;48.114;-1.388;2022-09-09T10:59:04;24.90;56.70
61765;DHT22;50188;48.114;-1.388;2022-09-09T11:01:43;24.50;57.30
61765;DHT22;50188;48.114;-1.388;2022-09-09T11:04:28;24.30;58.30
61765;DHT22;50188;48.114;-1.388;2022-09-09T11:07:00;24.00;58.20
61765;DHT22;50188;48.114;-1.388;2022-09-09T11:09:35;23.70;59.50
61765;DHT22;50188;48.114;-1.388;2022-09-09T11:12:03;23.40;60.80
61765;DHT22;50188;48.114;-1.388;2022-09-09T11:14:43;23.30;61.40
61765;DHT22;50188;48.114;-1.388;2022-09-09T11:17:16;23.20;61.20
61765;DHT22;50188;48.114;-1.388;2022-09-09T11:19:44;23.30;61.80
61765;DHT22;50188;48.114;-1.388;2022-09-09T11:22:31;23.40;62.00
61765;DHT22;50188;48.114;-1.388;2022-09-09T11:25:08;23.50;62.90
61765;DHT22;50188;48.114;-1.388;2022-09-09T11:31:21;23.10;63.60
61765;DHT22;50188;48.114;-1.388;2022-09-09T11:34:21;23.10;63.80
61765;DHT22;50188;48.114;-1.388;2022-09-09T11:37:16;23.20;65.40
61765;DHT22;50188;48.114;-1.388;2022-09-09T11:39:51;23.90;62.30
61765;DHT22;50188;48.114;-1.388;2022-09-09T11:42:23;24.40;62.60
61765;DHT22;50188;48.114;-1.388;2022-09-09T11:44:50;24.70;61.90
61765;DHT22;50188;48.114;-1.388;2022-09-09T11:47:26;24.60;60.90
61765;DHT22;50188;48.114;-1.388;2022-09-09T11:50:06;24.60;58.70
61765;DHT22;50188;48.114;-1.388;2022-09-09T11:52:38;24.50;57.90
61765;DHT22;50188;48.114;-1.388;2022-09-09T11:55:24;24.50;57.60
61765;DHT22;50188;48.114;-1.388;2022-09-09T11:58:03;24.40;58.90
61765;DHT22;50188;48.114;-1.388;2022-09-09T12:00:39;24.40;58.20
61765;DHT22;50188;48.114;-1.388;2022-09-09T12:03:34;24.50;58.60
61765;DHT22;50188;48.114;-1.388;2022-09-09T12:09:10;24.30;59.20
61765;DHT22;50188;48.114;-1.388;2022-09-09T12:11:40;24.20;59.20
61765;DHT22;50188;48.114;-1.388;2022-09-09T12:14:34;24.10;58.40
61765;DHT22;50188;48.114;-1.388;2022-09-09T12:17:24;24.00;59.80
61765;DHT22;50188;48.114;-1.388;2022-09-09T12:20:16;24.00;59.30
61765;DHT22;50188;48.114;-1.388;2022-09-09T12:23:00;24.10;58.70
61765;DHT22;50188;48.114;-1.388;2022-09-09T12:25:54;23.90;59.60
61765;DHT22;50188;48.114;-1.388;2022-09-09T12:29:00;23.90;58.60
61765;DHT22;50188;48.114;-1.388;2022-09-09T12:31:56;23.80;59.40
61765;DHT22;50188;48.114;-1.388;2022-09-09T12:34:41;23.90;60.30
61765;DHT22;50188;48.114;-1.388;2022-09-09T12:37:24;23.90;60.60
61765;DHT22;50188;48.114;-1.388;2022-09-09T12:39:57;23.90;59.50
61765;DHT22;50188;48.114;-1.388;2022-09-09T12:42:24;23.70;60.00
61765;DHT22;50188;48.114;-1.388;2022-09-09T12:44:52;24.00;60.30
61765;DHT22;50188;48.114;-1.388;2022-09-09T12:47:20;24.30;59.40
61765;DHT22;50188;48.114;-1.388;2022-09-09T12:49:47;24.40;57.30
61765;DHT22;50188;48.114;-1.388;2022-09-09T12:52:27;24.40;58.20
61765;DHT22;50188;48.114;-1.388;2022-09-09T12:54:55;24.30;57.10
61765;DHT22;50188;48.114;-1.388;2022-09-09T12:57:23;24.30;56.80
61765;DHT22;50188;48.114;-1.388;2022-09-09T12:59:51;24.40;57.90
61765;DHT22;50188;48.114;-1.388;2022-09-09T13:02:21;24.30;57.40
61765;DHT22;50188;48.114;-1.388;2022-09-09T13:04:47;24.50;57.90
61765;DHT22;50188;48.114;-1.388;2022-09-09T13:07:13;24.50;58.30
61765;DHT22;50188;48.114;-1.388;2022-09-09T13:09:42;24.70;57.90
61765;DHT22;50188;48.114;-1.388;2022-09-09T13:12:14;24.80;60.00
61765;DHT22;50188;48.114;-1.388;2022-09-09T13:14:43;25.00;59.60
61765;DHT22;50188;48.114;-1.388;2022-09-09T13:17:24;24.90;58.60
61765;DHT22;50188;48.114;-1.388;2022-09-09T13:19:51;24.90;58.50
61765;DHT22;50188;48.114;-1.388;2022-09-09T13:22:30;24.80;58.50
61765;DHT22;50188;48.114;-1.388;2022-09-09T13:25:04;25.00;59.60
61765;DHT22;50188;48.114;-1.388;2022-09-09T13:27:36;25.00;58.90
61765;DHT22;50188;48.114;-1.388;2022-09-09T13:30:33;24.60;58.90
61765;DHT22;50188;48.114;-1.388;2022-09-09T13:33:22;24.80;58.20
61765;DHT22;50188;48.114;-1.388;2022-09-09T13:35:57;24.70;59.60
61765;DHT22;50188;48.114;-1.388;2022-09-09T13:38:27;24.70;58.20
61765;DHT22;50188;48.114;-1.388;2022-09-09T13:40:56;24.60;57.60
61765;DHT22;50188;48.114;-1.388;2022-09-09T13:43:25;24.50;57.80
61765;DHT22;50188;48.114;-1.388;2022-09-09T13:46:00;24.30;58.00
61765;DHT22;50188;48.114;-1.388;2022-09-09T13:48:27;24.20;57.80
61765;DHT22;50188;48.114;-1.388;2022-09-09T13:51:01;23.80;59.40
61765;DHT22;50188;48.114;-1.388;2022-09-09T13:53:28;23.40;60.60
61765;DHT22;50188;48.114;-1.388;2022-09-09T13:55:54;23.20;61.50
61765;DHT22;50188;48.114;-1.388;2022-09-09T13:58:20;22.90;62.00
61765;DHT22;50188;48.114;-1.388;2022-09-09T14:00:46;22.90;62.70
61765;DHT22;50188;48.114;-1.388;2022-09-09T14:03:13;22.70;62.80
61765;DHT22;50188;48.114;-1.388;2022-09-09T14:05:39;22.60;63.60
61765;DHT22;50188;48.114;-1.388;2022-09-09T14:08:06;22.60;64.60
61765;DHT22;50188;48.114;-1.388;2022-09-09T14:10:32;22.60;65.20
61765;DHT22;50188;48.114;-1.388;2022-09-09T14:12:58;22.70;65.00
61765;DHT22;50188;48.114;-1.388;2022-09-09T14:15:23;22.80;65.90
61765;DHT22;50188;48.114;-1.388;2022-09-09T14:17:49;22.60;67.50
61765;DHT22;50188;48.114;-1.388;2022-09-09T14:20:15;22.50;68.90
61765;DHT22;50188;48.114;-1.388;2022-09-09T14:22:42;22.70;70.00
61765;DHT22;50188;48.114;-1.388;2022-09-09T14:25:09;22.70;69.60
61765;DHT22;50188;48.114;-1.388;2022-09-09T14:27:35;22.50;71.10
61765;DHT22;50188;48.114;-1.388;2022-09-09T14:30:00;22.40;72.00
61765;DHT22;50188;48.114;-1.388;2022-09-09T14:32:26;22.40;72.80
61765;DHT22;50188;48.114;-1.388;2022-09-09T14:34:52;22.40;72.70
61765;DHT22;50188;48.114;-1.388;2022-09-09T14:37:18;22.50;72.00
61765;DHT22;50188;48.114;-1.388;2022-09-09T14:39:44;22.60;73.00
61765;DHT22;50188;48.114;-1.388;2022-09-09T14:42:12;22.50;74.30
61765;DHT22;50188;48.114;-1.388;2022-09-09T14:44:38;22.70;72.80
61765;DHT22;50188;48.114;-1.388;2022-09-09T14:47:05;22.60;71.40
61765;DHT22;50188;48.114;-1.388;2022-09-09T14:49:31;22.60;70.40
61765;DHT22;50188;48.114;-1.388;2022-09-09T14:51:57;22.60;69.80
61765;DHT22;50188;48.114;-1.388;2022-09-09T14:54:22;22.70;69.00
61765;DHT22;50188;48.114;-1.388;2022-09-09T14:56:48;22.90;69.30
61765;DHT22;50188;48.114;-1.388;2022-09-09T14:59:14;22.90;68.60
61765;DHT22;50188;48.114;-1.388;2022-09-09T15:01:40;22.90;67.80
61765;DHT22;50188;48.114;-1.388;2022-09-09T15:04:06;22.90;67.60
61765;DHT22;50188;48.114;-1.388;2022-09-09T15:06:35;22.90;67.90
61765;DHT22;50188;48.114;-1.388;2022-09-09T15:09:04;22.70;66.70
61765;DHT22;50188;48.114;-1.388;2022-09-09T15:11:33;22.40;67.60
61765;DHT22;50188;48.114;-1.388;2022-09-09T15:14:03;22.40;68.60
61765;DHT22;50188;48.114;-1.388;2022-09-09T15:16:29;22.20;68.80
61765;DHT22;50188;48.114;-1.388;2022-09-09T15:18:57;22.10;68.60
61765;DHT22;50188;48.114;-1.388;2022-09-09T15:21:24;22.20;69.00
61765;DHT22;50188;48.114;-1.388;2022-09-09T15:23:51;22.30;69.30
61765;DHT22;50188;48.114;-1.388;2022-09-09T15:26:16;22.40;70.40
61765;DHT22;50188;48.114;-1.388;2022-09-09T15:28:44;22.50;69.90
61765;DHT22;50188;48.114;-1.388;2022-09-09T15:31:13;22.30;68.70
61765;DHT22;50188;48.114;-1.388;2022-09-09T15:33:49;22.40;68.70
61765;DHT22;50188;48.114;-1.388;2022-09-09T15:36:17;22.40;68.40
61765;DHT22;50188;48.114;-1.388;2022-09-09T15:38:43;22.50;66.70
61765;DHT22;50188;48.114;-1.388;2022-09-09T15:41:10;22.50;66.80
61765;DHT22;50188;48.114;-1.388;2022-09-09T15:43:36;22.50;65.80
61765;DHT22;50188;48.114;-1.388;2022-09-09T15:46:24;22.50;65.40
61765;DHT22;50188;48.114;-1.388;2022-09-09T15:48:54;22.40;63.60
61765;DHT22;50188;48.114;-1.388;2022-09-09T15:51:20;22.20;65.20
61765;DHT22;50188;48.114;-1.388;2022-09-09T15:53:46;22.30;65.40
61765;DHT22;50188;48.114;-1.388;2022-09-09T15:56:12;22.20;65.90
61765;DHT22;50188;48.114;-1.388;2022-09-09T15:58:37;22.20;65.70
61765;DHT22;50188;48.114;-1.388;2022-09-09T16:01:07;22.20;65.50
61765;DHT22;50188;48.114;-1.388;2022-09-09T16:03:39;22.20;65.80
61765;DHT22;50188;48.114;-1.388;2022-09-09T16:06:05;22.20;66.20
61765;DHT22;50188;48.114;-1.388;2022-09-09T16:08:33;22.20;66.20
61765;DHT22;50188;48.114;-1.388;2022-09-09T16:11:08;22.20;65.60
61765;DHT22;50188;48.114;-1.388;2022-09-09T16:13:39;22.20;66.10
61765;DHT22;50188;48.114;-1.388;2022-09-09T16:16:06;22.30;66.70